createdAt,value
2023-01-19T00:03:16.457Z,4.30
2023-01-19T00:08:18.968Z,4.00
2023-01-19T00:13:23.346Z,3.70
2023-01-19T00:18:27.562Z,3.60
2023-01-19T00:23:37.981Z,3.80
2023-01-19T00:28:40.442Z,4.00
2023-01-19T00:33:43.370Z,4.00
2023-01-19T00:39:07.422Z,3.70
2023-01-19T00:44:12.588Z,3.50
2023-01-19T00:49:14.972Z,3.30
2023-01-19T00:54:23.630Z,3.10
2023-01-19T00:59:26.131Z,3.00
2023-01-19T01:04:28.980Z,3.00
2023-01-19T01:09:39.227Z,3.00
2023-01-19T01:14:45.455Z,3.20
2023-01-19T01:19:47.554Z,3.20
2023-01-19T01:25:01.347Z,3.20
2023-01-19T01:30:03.890Z,3.10
2023-01-19T01:35:06.806Z,3.10
2023-01-19T01:40:11.785Z,3.00
2023-01-19T01:45:33.793Z,3.00
2023-01-19T01:51:00.261Z,3.00
2023-01-19T01:56:09.662Z,3.10
2023-01-19T02:01:32.954Z,3.40
2023-01-19T02:06:54.062Z,3.40
2023-01-19T02:12:15.730Z,3.20
2023-01-19T02:17:18.209Z,3.00
2023-01-19T02:22:30.813Z,2.90
2023-01-19T02:27:33.539Z,3.00
2023-01-19T02:32:37.134Z,3.00
2023-01-19T02:37:41.099Z,3.10
2023-01-19T02:42:49.983Z,3.10
2023-01-19T02:47:53.601Z,3.00
2023-01-19T02:53:11.025Z,3.00
2023-01-19T02:58:27.427Z,3.00
2023-01-19T03:03:46.525Z,2.90
2023-01-19T03:09:11.081Z,2.90
2023-01-19T03:14:22.577Z,2.90
2023-01-19T03:19:35.987Z,2.90
2023-01-19T03:24:43.347Z,2.80
2023-01-19T03:29:53.402Z,2.80
2023-01-19T03:35:09.316Z,2.80
2023-01-19T03:40:13.388Z,2.90
2023-01-19T03:45:16.721Z,3.10
2023-01-19T03:50:30.326Z,3.10
2023-01-19T03:55:32.932Z,3.20
2023-01-19T04:00:36.620Z,3.20
2023-01-19T04:05:40.735Z,3.20
2023-01-19T04:10:47.613Z,3.40
2023-01-19T04:15:52.308Z,3.50
2023-01-19T04:20:55.272Z,3.50
2023-01-19T04:26:04.580Z,3.40
2023-01-19T04:31:07.521Z,3.30
2023-01-19T04:36:09.837Z,3.20
2023-01-19T04:41:13.175Z,3.20
2023-01-19T04:46:15.532Z,3.20
2023-01-19T04:51:17.738Z,3.10
2023-01-19T04:56:19.941Z,2.90
2023-01-19T05:01:23.216Z,2.80
2023-01-19T05:06:30.029Z,2.90
2023-01-19T05:11:32.261Z,3.00
2023-01-19T05:16:34.710Z,3.00
2023-01-19T05:21:41.109Z,2.90
2023-01-19T05:26:45.797Z,2.90
2023-01-19T05:31:50.865Z,2.90
2023-01-19T05:36:54.393Z,3.00
2023-01-19T05:41:57.503Z,3.00
2023-01-19T05:46:59.760Z,3.10
2023-01-19T05:52:02.395Z,3.10
2023-01-19T05:57:06.135Z,3.10
2023-01-19T06:02:09.416Z,3.10
2023-01-19T06:07:11.772Z,3.10
2023-01-19T06:12:16.581Z,3.20
2023-01-19T06:17:19.124Z,3.20
2023-01-19T06:22:21.352Z,3.20
2023-01-19T06:27:23.918Z,3.20
2023-01-19T06:32:28.514Z,3.30
2023-01-19T06:37:31.633Z,3.30
2023-01-19T06:42:36.495Z,3.30
2023-01-19T06:47:38.738Z,3.30
2023-01-19T06:52:42.719Z,3.20
2023-01-19T06:57:46.185Z,3.20
2023-01-19T07:02:49.867Z,3.20
2023-01-19T07:08:05.152Z,3.30
2023-01-19T07:13:09.738Z,3.20
2023-01-19T07:18:19.876Z,3.20
2023-01-19T07:23:23.913Z,3.30
2023-01-19T07:28:26.623Z,3.30
2023-01-19T07:33:29.975Z,3.20
2023-01-19T07:38:32.724Z,3.30
2023-01-19T07:43:35.175Z,3.30
2023-01-19T07:48:37.925Z,3.20
2023-01-19T07:53:41.889Z,3.30
2023-01-19T07:58:44.310Z,3.30
2023-01-19T08:03:48.202Z,3.30
2023-01-19T08:08:50.923Z,3.30
2023-01-19T08:13:53.147Z,3.20
2023-01-19T08:18:55.600Z,3.30
2023-01-19T08:23:58.378Z,3.20
2023-01-19T08:29:03.729Z,3.20
2023-01-19T08:34:06.156Z,3.20
2023-01-19T08:39:12.224Z,3.20
2023-01-19T08:44:14.493Z,3.20
2023-01-19T08:49:17.168Z,3.20
2023-01-19T08:54:21.800Z,3.20
2023-01-19T08:59:24.177Z,3.20
2023-01-19T09:04:26.720Z,3.30
2023-01-19T09:09:29.033Z,3.20
2023-01-19T09:14:31.275Z,3.20
2023-01-19T09:19:35.020Z,3.30
2023-01-19T09:24:37.344Z,3.30
2023-01-19T09:29:39.448Z,3.30
2023-01-19T09:34:43.502Z,3.30
2023-01-19T09:39:46.871Z,3.30
2023-01-19T09:44:50.662Z,3.30
2023-01-19T09:50:27.723Z,3.40
2023-01-19T09:55:31.729Z,3.50
2023-01-19T10:00:34.886Z,3.50
2023-01-19T10:06:01.352Z,3.50
2023-01-19T10:11:08.480Z,3.60
2023-01-19T10:16:33.961Z,3.70
2023-01-19T10:21:50.497Z,3.60
2023-01-19T10:26:55.715Z,3.60
2023-01-19T10:32:21.450Z,3.70
2023-01-19T10:37:37.928Z,3.70
2023-01-19T10:42:42.845Z,3.70
2023-01-19T10:47:47.280Z,3.70
2023-01-19T10:52:52.097Z,3.90
2023-01-19T10:57:58.786Z,3.80
2023-01-19T11:03:06.151Z,3.80
2023-01-19T11:08:31.544Z,3.70
2023-01-19T11:13:34.761Z,3.80
2023-01-19T11:18:41.358Z,4.00
2023-01-19T11:23:54.746Z,4.00
2023-01-19T11:29:00.396Z,4.10
2023-01-19T11:34:32.050Z,4.00
2023-01-19T11:39:47.427Z,4.00
2023-01-19T11:45:06.249Z,4.10
2023-01-19T11:50:16.516Z,4.10
2023-01-19T11:55:28.996Z,4.10
2023-01-19T12:00:40.511Z,4.20
2023-01-19T12:05:57.028Z,4.20
2023-01-19T12:11:03.314Z,4.20
2023-01-19T12:16:11.236Z,4.30
2023-01-19T12:21:18.256Z,4.30
2023-01-19T12:26:57.834Z,4.40
2023-01-19T12:32:19.470Z,4.30
2023-01-19T12:37:35.593Z,4.40
2023-01-19T12:42:46.142Z,4.40
2023-01-19T12:47:55.367Z,4.40
2023-01-19T12:53:02.701Z,4.40
2023-01-19T12:58:10.699Z,4.40
2023-01-19T13:03:18.598Z,4.50
2023-01-19T13:09:02.093Z,4.50
2023-01-19T13:14:04.168Z,4.60
2023-01-19T13:19:06.371Z,4.80
2023-01-19T13:24:16.740Z,4.70
2023-01-19T13:29:23.107Z,4.60
2023-01-19T13:34:27.906Z,4.50
2023-01-19T13:39:37.483Z,4.50
2023-01-19T13:44:55.357Z,4.70
2023-01-19T13:49:59.332Z,4.90
2023-01-19T13:55:04.810Z,4.80
2023-01-19T14:00:13.057Z,4.90
2023-01-19T14:05:28.672Z,4.90
2023-01-19T14:10:31.573Z,4.80
2023-01-19T14:15:35.144Z,4.60
2023-01-19T14:20:37.911Z,4.40
2023-01-19T14:25:44.448Z,4.40
2023-01-19T14:30:57.981Z,4.40
2023-01-19T14:36:38.165Z,4.60
2023-01-19T14:41:49.177Z,4.60
2023-01-19T14:46:51.504Z,4.70
2023-01-19T14:51:54.184Z,4.60
2023-01-19T14:56:56.394Z,4.70
2023-01-19T15:01:59.890Z,4.90
2023-01-19T15:07:02.234Z,5.10
2023-01-19T15:12:04.846Z,5.40
2023-01-19T15:17:06.971Z,5.30
2023-01-19T15:22:13.457Z,5.20
2023-01-19T15:27:16.121Z,5.30
2023-01-19T15:32:18.927Z,5.20
2023-01-19T15:37:27.039Z,5.10
2023-01-19T15:42:29.324Z,4.90
2023-01-19T15:47:31.561Z,4.80
2023-01-19T15:52:33.698Z,4.80
2023-01-19T15:57:35.799Z,4.90
2023-01-19T16:02:38.203Z,5.00
2023-01-19T16:07:40.398Z,5.00
2023-01-19T16:12:47.917Z,4.90
2023-01-19T16:17:50.394Z,4.90
2023-01-19T16:22:56.450Z,4.80
2023-01-19T16:27:58.885Z,4.70
2023-01-19T16:33:01.176Z,4.60
2023-01-19T16:38:03.399Z,4.40
2023-01-19T16:43:05.633Z,4.30
2023-01-19T16:48:07.838Z,4.20
2023-01-19T16:53:10.091Z,4.00
2023-01-19T16:58:12.289Z,3.80
2023-01-19T17:03:14.605Z,3.70
2023-01-19T17:08:19.294Z,3.70
2023-01-19T17:13:21.663Z,3.70
2023-01-19T17:18:23.958Z,3.70
2023-01-19T17:23:26.316Z,3.70
2023-01-19T17:28:28.665Z,3.80
2023-01-19T17:33:31.461Z,3.80
2023-01-19T17:38:33.772Z,3.90
2023-01-19T17:43:36.204Z,3.80
2023-01-19T17:48:39.248Z,3.80
2023-01-19T17:53:42.179Z,3.80
2023-01-19T17:58:45.311Z,3.70
2023-01-19T18:03:47.802Z,3.50
2023-01-19T18:08:50.515Z,3.30
2023-01-19T18:13:52.639Z,3.20
2023-01-19T18:18:56.149Z,3.10
2023-01-19T18:24:02.173Z,3.00
2023-01-19T18:29:04.393Z,3.00
2023-01-19T18:34:06.616Z,3.00
2023-01-19T18:39:09.532Z,3.00
2023-01-19T18:44:13.013Z,3.10
2023-01-19T18:49:15.221Z,3.10
2023-01-19T18:54:18.308Z,3.00
2023-01-19T18:59:20.840Z,3.00
2023-01-19T19:04:23.218Z,2.90
2023-01-19T19:09:25.408Z,2.90
2023-01-19T19:14:27.687Z,3.00
2023-01-19T19:19:30.129Z,3.00
2023-01-19T19:24:32.532Z,2.90
2023-01-19T19:29:35.163Z,2.80
2023-01-19T19:34:37.422Z,2.60
2023-01-19T19:39:39.625Z,2.50
2023-01-19T19:44:41.982Z,2.40
2023-01-19T19:49:45.195Z,2.40
2023-01-19T19:54:48.973Z,2.30
2023-01-19T19:59:51.128Z,2.20
2023-01-19T20:04:53.335Z,2.10
2023-01-19T20:09:55.570Z,2.10
2023-01-19T20:14:58.873Z,2.00
2023-01-19T20:20:04.128Z,2.00
2023-01-19T20:25:06.929Z,2.00
2023-01-19T20:30:09.672Z,2.00
2023-01-19T20:35:12.374Z,1.90
2023-01-19T20:40:15.287Z,1.90
2023-01-19T20:45:18.797Z,1.80
2023-01-19T20:50:21.038Z,1.70
2023-01-19T20:55:23.299Z,1.50
2023-01-19T21:00:26.918Z,1.50
2023-01-19T21:05:29.122Z,1.40
2023-01-19T21:10:32.919Z,1.40
2023-01-19T21:15:35.179Z,1.30
2023-01-19T21:20:37.292Z,1.30
2023-01-19T21:25:39.917Z,1.30
2023-01-19T21:30:42.115Z,1.30
2023-01-19T21:35:56.306Z,1.20
2023-01-19T21:40:59.094Z,1.10
2023-01-19T21:46:30.459Z,1.10
2023-01-19T21:51:34.753Z,0.90
2023-01-19T21:56:43.204Z,0.80
2023-01-19T22:01:46.378Z,0.70
2023-01-19T22:06:48.619Z,0.70
2023-01-19T22:11:50.691Z,0.60
2023-01-19T22:16:53.016Z,0.60
2023-01-19T22:21:55.248Z,0.50
2023-01-19T22:26:57.331Z,0.50
2023-01-19T22:31:59.407Z,0.40
2023-01-19T22:37:02.093Z,0.40
2023-01-19T22:42:04.240Z,0.30
2023-01-19T22:47:06.297Z,0.20
2023-01-19T22:52:08.364Z,0.20
2023-01-19T22:57:11.891Z,0.20
2023-01-19T23:02:14.146Z,0.20
2023-01-19T23:07:16.300Z,0.20
2023-01-19T23:12:18.481Z,0.20
2023-01-19T23:17:20.711Z,0.20
2023-01-19T23:22:22.926Z,0.20
2023-01-19T23:27:25.225Z,0.20
2023-01-19T23:32:27.418Z,0.20
2023-01-19T23:37:29.537Z,0.20
2023-01-19T23:42:31.702Z,0.20
2023-01-19T23:47:35.657Z,0.20
2023-01-19T23:52:37.860Z,0.00
2023-01-19T23:57:39.957Z,0.10
